This is the latest recevied weather packets stored in our database for station/object IW5EIJ-10. If no packets are shown the sender has not sent any weather packets the latest 10 day(s).
| Time | Temp. | Humidity | Pressure | Rain* | Wind** | Luminosity | Snow |
|---|---|---|---|---|---|---|---|
| 1777806431 | 18.89° C | 35% | 1016.8 hPa | - | - | - | - |
| 1777805231 | 18.33° C | 32% | 1016.8 hPa | - | - | - | - |
| 1777804031 | 18.33° C | 32% | 1017 hPa | - | - | - | - |
| 1777802831 | 18.33° C | 38% | 1017.1 hPa | - | - | - | - |
| 1777801633 | 17.78° C | 39% | 1017.3 hPa | - | - | - | - |
| 1777800431 | 177.22° C | 41% | - | - | - | - | - |
| 1777799231 | 17.78° C | 42% | 1017.4 hPa | - | - | - | - |
| 1777798031 | 17.22° C | 44% | 1017.4 hPa | - | - | - | - |
| 1777796831 | 16.67° C | 45% | 1017.5 hPa | - | - | - | - |
| 1777795628 | 16.67° C | 46% | 1017.6 hPa | - | - | - | - |
| 1777794427 | 17.22° C | 45% | 1017.6 hPa | - | - | - | - |
| 1777792027 | 16.11° C | 49% | 1017.8 hPa | - | - | - | - |
| 1777790827 | 15.56° C | 51% | 1017.9 hPa | - | - | - | - |
| 1777789627 | 15.56° C | 51% | 1018 hPa | - | - | - | - |
| 1777788427 | 16.11° C | 46% | 1017.9 hPa | - | - | - | - |
| 1777787227 | 16.11° C | 44% | 1017.8 hPa | - | - | - | - |
| 1777786027 | 16.11° C | 43% | 1017.7 hPa | - | - | - | - |
| 1777784826 | 16.11° C | 41% | 1017.6 hPa | - | - | - | - |
| 1777783626 | 16.11° C | 40% | 1017.5 hPa | - | - | - | - |
| 1777782426 | 16.11° C | 42% | 1017.4 hPa | - | - | - | - |
| 1777781226 | 16.11° C | 39% | 1017.2 hPa | - | - | - | - |
| 1777780026 | 15.56° C | 38% | 1017.2 hPa | - | - | - | - |
| 1777778826 | 16.11° C | 38% | 1017.2 hPa | - | - | - | - |
| 1777777626 | 16.11° C | 38% | 1017.2 hPa | - | - | - | - |
| 1777776426 | 16.11° C | 37% | 1017.3 hPa | - | - | - | - |
* Rain since midnight (hover to see other rain measurements)
** Current wind speed in m/s (hover to see current wind gust speed)